sensor_id;sensor_type;location;lat;lon;timestamp;P1;durP1;ratioP1;P2;durP2;ratioP2
30020;SDS011;16861;52.294;7.760;2023-02-17T00:00:32;24.70;;;19.42;;
30020;SDS011;16861;52.294;7.760;2023-02-17T00:02:58;25.50;;;19.38;;
30020;SDS011;16861;52.294;7.760;2023-02-17T00:05:25;22.60;;;19.27;;
30020;SDS011;16861;52.294;7.760;2023-02-17T00:07:53;26.50;;;18.60;;
30020;SDS011;16861;52.294;7.760;2023-02-17T00:10:19;24.83;;;18.60;;
30020;SDS011;16861;52.294;7.760;2023-02-17T00:12:46;26.05;;;19.40;;
30020;SDS011;16861;52.294;7.760;2023-02-17T00:15:12;23.85;;;18.77;;
30020;SDS011;16861;52.294;7.760;2023-02-17T00:17:38;23.95;;;18.55;;
30020;SDS011;16861;52.294;7.760;2023-02-17T00:20:05;23.17;;;18.38;;
30020;SDS011;16861;52.294;7.760;2023-02-17T00:22:32;25.27;;;18.60;;
30020;SDS011;16861;52.294;7.760;2023-02-17T00:24:58;23.45;;;18.38;;
30020;SDS011;16861;52.294;7.760;2023-02-17T00:27:25;25.23;;;19.38;;
30020;SDS011;16861;52.294;7.760;2023-02-17T00:29:51;22.20;;;17.60;;
30020;SDS011;16861;52.294;7.760;2023-02-17T00:32:17;26.38;;;17.75;;
30020;SDS011;16861;52.294;7.760;2023-02-17T00:34:44;22.02;;;17.73;;
30020;SDS011;16861;52.294;7.760;2023-02-17T00:37:10;25.42;;;18.15;;
30020;SDS011;16861;52.294;7.760;2023-02-17T00:39:37;20.10;;;17.48;;
30020;SDS011;16861;52.294;7.760;2023-02-17T00:42:03;22.92;;;17.92;;
30020;SDS011;16861;52.294;7.760;2023-02-17T00:44:29;21.05;;;16.10;;
30020;SDS011;16861;52.294;7.760;2023-02-17T00:46:56;23.48;;;16.67;;
30020;SDS011;16861;52.294;7.760;2023-02-17T00:49:23;20.98;;;16.40;;
30020;SDS011;16861;52.294;7.760;2023-02-17T00:51:51;21.08;;;17.63;;
30020;SDS011;16861;52.294;7.760;2023-02-17T00:54:19;21.48;;;17.23;;
30020;SDS011;16861;52.294;7.760;2023-02-17T00:56:45;19.98;;;16.80;;
30020;SDS011;16861;52.294;7.760;2023-02-17T00:59:12;23.20;;;17.38;;
30020;SDS011;16861;52.294;7.760;2023-02-17T01:01:38;21.25;;;16.95;;
30020;SDS011;16861;52.294;7.760;2023-02-17T01:04:05;22.48;;;18.65;;
30020;SDS011;16861;52.294;7.760;2023-02-17T01:06:33;25.38;;;18.77;;
30020;SDS011;16861;52.294;7.760;2023-02-17T01:09:02;21.60;;;17.17;;
30020;SDS011;16861;52.294;7.760;2023-02-17T01:11:31;20.45;;;16.98;;
30020;SDS011;16861;52.294;7.760;2023-02-17T01:13:59;23.35;;;17.02;;
30020;SDS011;16861;52.294;7.760;2023-02-17T01:16:28;20.60;;;17.83;;
30020;SDS011;16861;52.294;7.760;2023-02-17T01:19:03;21.80;;;18.25;;
30020;SDS011;16861;52.294;7.760;2023-02-17T01:21:32;21.65;;;17.40;;
30020;SDS011;16861;52.294;7.760;2023-02-17T01:24:00;21.02;;;17.50;;
30020;SDS011;16861;52.294;7.760;2023-02-17T01:26:28;20.13;;;17.60;;
30020;SDS011;16861;52.294;7.760;2023-02-17T01:28:56;21.75;;;17.75;;
30020;SDS011;16861;52.294;7.760;2023-02-17T01:31:23;22.50;;;18.50;;
30020;SDS011;16861;52.294;7.760;2023-02-17T01:33:53;22.05;;;18.17;;
30020;SDS011;16861;52.294;7.760;2023-02-17T01:36:21;20.05;;;16.80;;
30020;SDS011;16861;52.294;7.760;2023-02-17T01:38:48;21.60;;;17.67;;
30020;SDS011;16861;52.294;7.760;2023-02-17T01:41:15;21.02;;;17.00;;
30020;SDS011;16861;52.294;7.760;2023-02-17T01:44:03;21.58;;;17.42;;
30020;SDS011;16861;52.294;7.760;2023-02-17T01:46:33;19.67;;;16.95;;
30020;SDS011;16861;52.294;7.760;2023-02-17T01:49:00;20.40;;;16.35;;
30020;SDS011;16861;52.294;7.760;2023-02-17T01:51:33;20.70;;;17.17;;
30020;SDS011;16861;52.294;7.760;2023-02-17T01:54:05;21.40;;;16.63;;
30020;SDS011;16861;52.294;7.760;2023-02-17T01:56:37;20.02;;;16.83;;
30020;SDS011;16861;52.294;7.760;2023-02-17T01:59:09;19.70;;;16.85;;
30020;SDS011;16861;52.294;7.760;2023-02-17T02:01:41;18.02;;;15.55;;
30020;SDS011;16861;52.294;7.760;2023-02-17T02:04:08;19.85;;;17.67;;
30020;SDS011;16861;52.294;7.760;2023-02-17T02:06:35;19.05;;;15.27;;
30020;SDS011;16861;52.294;7.760;2023-02-17T02:09:06;22.88;;;16.33;;
30020;SDS011;16861;52.294;7.760;2023-02-17T02:11:36;19.50;;;16.02;;
30020;SDS011;16861;52.294;7.760;2023-02-17T02:14:03;20.55;;;16.02;;
30020;SDS011;16861;52.294;7.760;2023-02-17T02:16:38;20.40;;;16.42;;
30020;SDS011;16861;52.294;7.760;2023-02-17T02:27:25;21.42;;;17.13;;
30020;SDS011;16861;52.294;7.760;2023-02-17T02:33:01;21.23;;;15.93;;
30020;SDS011;16861;52.294;7.760;2023-02-17T02:35:34;19.55;;;16.45;;
30020;SDS011;16861;52.294;7.760;2023-02-17T02:40:48;18.30;;;15.57;;
30020;SDS011;16861;52.294;7.760;2023-02-17T02:43:18;20.05;;;16.33;;
30020;SDS011;16861;52.294;7.760;2023-02-17T02:45:46;18.45;;;16.45;;
30020;SDS011;16861;52.294;7.760;2023-02-17T02:48:13;18.67;;;15.63;;
30020;SDS011;16861;52.294;7.760;2023-02-17T02:50:48;20.10;;;16.10;;
30020;SDS011;16861;52.294;7.760;2023-02-17T02:53:53;17.52;;;15.07;;
30020;SDS011;16861;52.294;7.760;2023-02-17T02:59:22;18.40;;;15.82;;
30020;SDS011;16861;52.294;7.760;2023-02-17T03:02:29;18.55;;;15.70;;
30020;SDS011;16861;52.294;7.760;2023-02-17T03:07:38;20.17;;;16.70;;
30020;SDS011;16861;52.294;7.760;2023-02-17T03:10:09;20.80;;;17.95;;
30020;SDS011;16861;52.294;7.760;2023-02-17T03:12:36;20.13;;;17.15;;
30020;SDS011;16861;52.294;7.760;2023-02-17T03:15:07;21.20;;;17.48;;
30020;SDS011;16861;52.294;7.760;2023-02-17T03:17:47;19.92;;;16.77;;
30020;SDS011;16861;52.294;7.760;2023-02-17T03:20:14;21.67;;;18.33;;
30020;SDS011;16861;52.294;7.760;2023-02-17T03:22:42;21.73;;;17.27;;
30020;SDS011;16861;52.294;7.760;2023-02-17T03:25:11;20.60;;;17.08;;
30020;SDS011;16861;52.294;7.760;2023-02-17T03:27:37;19.80;;;16.70;;
30020;SDS011;16861;52.294;7.760;2023-02-17T03:30:04;22.88;;;17.60;;
30020;SDS011;16861;52.294;7.760;2023-02-17T03:32:31;20.05;;;17.27;;
30020;SDS011;16861;52.294;7.760;2023-02-17T03:34:58;20.75;;;18.05;;
30020;SDS011;16861;52.294;7.760;2023-02-17T03:37:24;19.77;;;16.80;;
30020;SDS011;16861;52.294;7.760;2023-02-17T03:39:51;19.92;;;17.52;;
30020;SDS011;16861;52.294;7.760;2023-02-17T03:42:17;20.23;;;17.98;;
30020;SDS011;16861;52.294;7.760;2023-02-17T03:44:44;20.13;;;17.35;;
30020;SDS011;16861;52.294;7.760;2023-02-17T03:47:10;21.88;;;19.17;;
30020;SDS011;16861;52.294;7.760;2023-02-17T03:49:37;23.13;;;18.67;;
30020;SDS011;16861;52.294;7.760;2023-02-17T03:52:05;21.70;;;17.85;;
30020;SDS011;16861;52.294;7.760;2023-02-17T03:54:32;19.95;;;17.48;;
30020;SDS011;16861;52.294;7.760;2023-02-17T03:56:58;21.20;;;17.15;;
30020;SDS011;16861;52.294;7.760;2023-02-17T03:59:26;20.38;;;17.77;;
30020;SDS011;16861;52.294;7.760;2023-02-17T04:01:53;20.08;;;17.63;;
30020;SDS011;16861;52.294;7.760;2023-02-17T04:04:19;21.70;;;17.65;;
30020;SDS011;16861;52.294;7.760;2023-02-17T04:06:46;20.38;;;16.80;;
30020;SDS011;16861;52.294;7.760;2023-02-17T04:09:12;18.90;;;16.65;;
30020;SDS011;16861;52.294;7.760;2023-02-17T04:11:38;19.73;;;17.55;;
30020;SDS011;16861;52.294;7.760;2023-02-17T04:14:05;22.63;;;18.38;;
30020;SDS011;16861;52.294;7.760;2023-02-17T04:16:31;20.92;;;17.65;;
30020;SDS011;16861;52.294;7.760;2023-02-17T04:18:58;19.52;;;16.63;;
30020;SDS011;16861;52.294;7.760;2023-02-17T04:21:24;20.73;;;16.83;;
30020;SDS011;16861;52.294;7.760;2023-02-17T04:23:51;22.50;;;17.17;;
30020;SDS011;16861;52.294;7.760;2023-02-17T04:26:20;20.90;;;17.13;;
30020;SDS011;16861;52.294;7.760;2023-02-17T04:28:46;21.02;;;18.05;;
30020;SDS011;16861;52.294;7.760;2023-02-17T04:31:13;22.35;;;17.35;;
30020;SDS011;16861;52.294;7.760;2023-02-17T04:33:39;19.38;;;16.98;;
30020;SDS011;16861;52.294;7.760;2023-02-17T04:36:05;22.40;;;17.80;;
30020;SDS011;16861;52.294;7.760;2023-02-17T04:38:33;22.77;;;18.23;;
30020;SDS011;16861;52.294;7.760;2023-02-17T04:41:00;23.98;;;18.92;;
30020;SDS011;16861;52.294;7.760;2023-02-17T04:43:27;22.98;;;17.92;;
30020;SDS011;16861;52.294;7.760;2023-02-17T04:45:54;22.95;;;18.20;;
30020;SDS011;16861;52.294;7.760;2023-02-17T04:48:21;23.45;;;18.45;;
30020;SDS011;16861;52.294;7.760;2023-02-17T04:50:48;22.70;;;18.60;;
30020;SDS011;16861;52.294;7.760;2023-02-17T04:53:14;22.52;;;18.50;;
30020;SDS011;16861;52.294;7.760;2023-02-17T04:55:41;25.02;;;18.77;;
30020;SDS011;16861;52.294;7.760;2023-02-17T04:58:08;23.48;;;18.10;;
30020;SDS011;16861;52.294;7.760;2023-02-17T05:00:35;24.83;;;17.60;;
30020;SDS011;16861;52.294;7.760;2023-02-17T05:03:01;22.67;;;17.35;;
30020;SDS011;16861;52.294;7.760;2023-02-17T05:05:28;21.08;;;17.40;;
30020;SDS011;16861;52.294;7.760;2023-02-17T05:07:55;20.92;;;16.90;;
30020;SDS011;16861;52.294;7.760;2023-02-17T05:10:21;22.58;;;17.27;;
30020;SDS011;16861;52.294;7.760;2023-02-17T05:12:49;19.42;;;16.40;;
30020;SDS011;16861;52.294;7.760;2023-02-17T05:15:15;24.52;;;16.92;;
30020;SDS011;16861;52.294;7.760;2023-02-17T05:17:42;21.60;;;17.92;;
30020;SDS011;16861;52.294;7.760;2023-02-17T05:20:09;20.45;;;16.48;;
30020;SDS011;16861;52.294;7.760;2023-02-17T05:22:36;18.73;;;15.63;;
30020;SDS011;16861;52.294;7.760;2023-02-17T05:25:03;19.05;;;15.45;;
30020;SDS011;16861;52.294;7.760;2023-02-17T05:27:31;17.52;;;15.02;;
30020;SDS011;16861;52.294;7.760;2023-02-17T05:29:58;19.55;;;15.10;;
30020;SDS011;16861;52.294;7.760;2023-02-17T05:32:24;16.50;;;14.38;;
30020;SDS011;16861;52.294;7.760;2023-02-17T05:34:51;17.73;;;14.45;;
30020;SDS011;16861;52.294;7.760;2023-02-17T05:37:18;18.10;;;14.93;;
30020;SDS011;16861;52.294;7.760;2023-02-17T05:39:44;19.50;;;15.85;;
30020;SDS011;16861;52.294;7.760;2023-02-17T05:42:11;18.17;;;15.32;;
30020;SDS011;16861;52.294;7.760;2023-02-17T05:44:38;17.00;;;14.73;;
30020;SDS011;16861;52.294;7.760;2023-02-17T05:47:04;18.30;;;15.38;;
30020;SDS011;16861;52.294;7.760;2023-02-17T05:49:31;18.02;;;16.02;;
30020;SDS011;16861;52.294;7.760;2023-02-17T05:51:57;18.27;;;15.43;;
30020;SDS011;16861;52.294;7.760;2023-02-17T05:54:24;18.05;;;15.63;;
30020;SDS011;16861;52.294;7.760;2023-02-17T05:56:50;18.92;;;15.43;;
30020;SDS011;16861;52.294;7.760;2023-02-17T05:59:17;17.98;;;14.98;;
30020;SDS011;16861;52.294;7.760;2023-02-17T06:01:43;18.77;;;15.73;;
30020;SDS011;16861;52.294;7.760;2023-02-17T06:04:10;17.67;;;14.98;;
30020;SDS011;16861;52.294;7.760;2023-02-17T06:06:36;19.33;;;16.83;;
30020;SDS011;16861;52.294;7.760;2023-02-17T06:09:03;21.05;;;16.40;;
30020;SDS011;16861;52.294;7.760;2023-02-17T06:11:29;20.95;;;16.20;;
30020;SDS011;16861;52.294;7.760;2023-02-17T06:13:56;20.50;;;16.70;;
30020;SDS011;16861;52.294;7.760;2023-02-17T06:16:22;22.33;;;16.67;;
30020;SDS011;16861;52.294;7.760;2023-02-17T06:18:49;21.42;;;17.10;;
30020;SDS011;16861;52.294;7.760;2023-02-17T06:21:15;21.10;;;17.30;;
30020;SDS011;16861;52.294;7.760;2023-02-17T06:23:42;23.95;;;18.00;;
30020;SDS011;16861;52.294;7.760;2023-02-17T06:26:08;23.55;;;18.73;;
30020;SDS011;16861;52.294;7.760;2023-02-17T06:28:35;22.63;;;18.00;;
30020;SDS011;16861;52.294;7.760;2023-02-17T06:31:02;22.27;;;18.35;;
30020;SDS011;16861;52.294;7.760;2023-02-17T06:33:28;24.38;;;17.38;;
30020;SDS011;16861;52.294;7.760;2023-02-17T06:35:55;23.42;;;17.73;;
30020;SDS011;16861;52.294;7.760;2023-02-17T06:38:21;25.23;;;18.25;;
30020;SDS011;16861;52.294;7.760;2023-02-17T06:40:48;23.55;;;17.35;;
30020;SDS011;16861;52.294;7.760;2023-02-17T06:43:14;24.60;;;18.05;;
30020;SDS011;16861;52.294;7.760;2023-02-17T06:45:41;24.35;;;18.58;;
30020;SDS011;16861;52.294;7.760;2023-02-17T06:48:08;21.80;;;17.10;;
30020;SDS011;16861;52.294;7.760;2023-02-17T06:50:34;23.95;;;17.80;;
30020;SDS011;16861;52.294;7.760;2023-02-17T06:53:01;20.33;;;15.15;;
30020;SDS011;16861;52.294;7.760;2023-02-17T06:55:27;20.17;;;15.68;;
30020;SDS011;16861;52.294;7.760;2023-02-17T06:57:54;17.85;;;14.50;;
30020;SDS011;16861;52.294;7.760;2023-02-17T07:00:21;17.70;;;13.88;;
30020;SDS011;16861;52.294;7.760;2023-02-17T07:02:47;17.48;;;13.43;;
30020;SDS011;16861;52.294;7.760;2023-02-17T07:05:15;20.75;;;13.90;;
30020;SDS011;16861;52.294;7.760;2023-02-17T07:07:41;17.70;;;13.02;;
30020;SDS011;16861;52.294;7.760;2023-02-17T07:10:08;16.08;;;12.20;;
30020;SDS011;16861;52.294;7.760;2023-02-17T07:12:35;18.05;;;12.85;;
30020;SDS011;16861;52.294;7.760;2023-02-17T07:15:02;18.83;;;13.48;;
30020;SDS011;16861;52.294;7.760;2023-02-17T07:17:29;15.40;;;12.23;;
30020;SDS011;16861;52.294;7.760;2023-02-17T07:19:55;15.98;;;12.25;;
30020;SDS011;16861;52.294;7.760;2023-02-17T07:22:22;17.38;;;11.35;;
30020;SDS011;16861;52.294;7.760;2023-02-17T07:24:50;13.05;;;10.43;;
30020;SDS011;16861;52.294;7.760;2023-02-17T07:27:17;18.35;;;11.60;;
30020;SDS011;16861;52.294;7.760;2023-02-17T07:29:44;14.77;;;10.73;;
30020;SDS011;16861;52.294;7.760;2023-02-17T07:32:10;13.80;;;10.73;;
30020;SDS011;16861;52.294;7.760;2023-02-17T07:34:37;14.77;;;10.55;;
30020;SDS011;16861;52.294;7.760;2023-02-17T07:37:04;12.20;;;10.40;;
30020;SDS011;16861;52.294;7.760;2023-02-17T07:39:30;12.10;;;9.93;;
30020;SDS011;16861;52.294;7.760;2023-02-17T07:41:57;11.20;;;9.13;;
30020;SDS011;16861;52.294;7.760;2023-02-17T07:44:26;14.13;;;10.38;;
30020;SDS011;16861;52.294;7.760;2023-02-17T07:46:53;13.38;;;10.07;;
30020;SDS011;16861;52.294;7.760;2023-02-17T07:49:19;13.73;;;10.40;;
30020;SDS011;16861;52.294;7.760;2023-02-17T07:51:46;14.90;;;9.88;;
30020;SDS011;16861;52.294;7.760;2023-02-17T07:54:13;11.40;;;8.95;;
30020;SDS011;16861;52.294;7.760;2023-02-17T07:56:40;14.18;;;10.50;;
30020;SDS011;16861;52.294;7.760;2023-02-17T07:59:07;12.90;;;10.10;;
30020;SDS011;16861;52.294;7.760;2023-02-17T08:01:35;10.80;;;9.25;;
30020;SDS011;16861;52.294;7.760;2023-02-17T08:04:01;13.98;;;10.45;;
30020;SDS011;16861;52.294;7.760;2023-02-17T08:06:28;15.35;;;12.18;;
30020;SDS011;16861;52.294;7.760;2023-02-17T08:08:54;17.35;;;11.85;;
30020;SDS011;16861;52.294;7.760;2023-02-17T08:11:40;14.77;;;11.43;;
30020;SDS011;16861;52.294;7.760;2023-02-17T08:14:27;13.40;;;11.20;;
30020;SDS011;16861;52.294;7.760;2023-02-17T08:16:55;14.85;;;11.13;;
30020;SDS011;16861;52.294;7.760;2023-02-17T08:19:22;14.40;;;11.88;;
30020;SDS011;16861;52.294;7.760;2023-02-17T08:21:55;15.43;;;12.00;;
30020;SDS011;16861;52.294;7.760;2023-02-17T08:24:21;17.30;;;11.20;;
30020;SDS011;16861;52.294;7.760;2023-02-17T08:26:48;15.35;;;11.02;;
30020;SDS011;16861;52.294;7.760;2023-02-17T08:29:15;15.25;;;11.82;;
30020;SDS011;16861;52.294;7.760;2023-02-17T08:31:42;15.18;;;11.73;;
30020;SDS011;16861;52.294;7.760;2023-02-17T08:34:10;15.00;;;11.00;;
30020;SDS011;16861;52.294;7.760;2023-02-17T08:36:38;14.27;;;11.23;;
30020;SDS011;16861;52.294;7.760;2023-02-17T08:39:08;16.90;;;12.38;;
30020;SDS011;16861;52.294;7.760;2023-02-17T08:41:37;12.75;;;10.32;;
30020;SDS011;16861;52.294;7.760;2023-02-17T08:44:08;14.82;;;11.95;;
30020;SDS011;16861;52.294;7.760;2023-02-17T08:49:04;16.77;;;11.65;;
30020;SDS011;16861;52.294;7.760;2023-02-17T08:51:32;16.40;;;12.00;;
30020;SDS011;16861;52.294;7.760;2023-02-17T08:53:59;15.38;;;11.20;;
30020;SDS011;16861;52.294;7.760;2023-02-17T08:56:27;22.02;;;13.38;;
30020;SDS011;16861;52.294;7.760;2023-02-17T08:58:55;16.85;;;12.77;;
30020;SDS011;16861;52.294;7.760;2023-02-17T09:01:22;17.25;;;12.40;;
30020;SDS011;16861;52.294;7.760;2023-02-17T09:03:49;17.80;;;12.90;;
30020;SDS011;16861;52.294;7.760;2023-02-17T09:06:17;17.80;;;12.80;;
30020;SDS011;16861;52.294;7.760;2023-02-17T09:08:44;18.55;;;12.50;;
30020;SDS011;16861;52.294;7.760;2023-02-17T09:11:11;18.50;;;13.82;;
30020;SDS011;16861;52.294;7.760;2023-02-17T09:13:40;17.70;;;13.25;;
30020;SDS011;16861;52.294;7.760;2023-02-17T09:16:07;17.48;;;13.90;;
30020;SDS011;16861;52.294;7.760;2023-02-17T09:18:35;18.27;;;13.20;;
30020;SDS011;16861;52.294;7.760;2023-02-17T09:21:08;20.88;;;14.40;;
30020;SDS011;16861;52.294;7.760;2023-02-17T09:23:37;18.50;;;13.45;;
30020;SDS011;16861;52.294;7.760;2023-02-17T09:26:05;22.17;;;14.82;;
30020;SDS011;16861;52.294;7.760;2023-02-17T09:28:33;19.23;;;14.60;;
30020;SDS011;16861;52.294;7.760;2023-02-17T09:31:08;19.90;;;14.23;;
30020;SDS011;16861;52.294;7.760;2023-02-17T09:33:45;18.95;;;13.65;;
30020;SDS011;16861;52.294;7.760;2023-02-17T09:36:13;19.65;;;13.95;;
30020;SDS011;16861;52.294;7.760;2023-02-17T09:38:42;20.15;;;14.40;;
30020;SDS011;16861;52.294;7.760;2023-02-17T09:43:52;20.15;;;14.10;;
30020;SDS011;16861;52.294;7.760;2023-02-17T09:48:51;22.05;;;14.48;;
30020;SDS011;16861;52.294;7.760;2023-02-17T09:51:24;21.70;;;14.70;;
30020;SDS011;16861;52.294;7.760;2023-02-17T09:54:02;18.73;;;14.38;;
30020;SDS011;16861;52.294;7.760;2023-02-17T09:56:37;20.83;;;14.23;;
30020;SDS011;16861;52.294;7.760;2023-02-17T10:02:13;20.52;;;15.18;;
30020;SDS011;16861;52.294;7.760;2023-02-17T10:04:49;18.92;;;14.90;;
30020;SDS011;16861;52.294;7.760;2023-02-17T10:07:20;21.17;;;14.88;;
30020;SDS011;16861;52.294;7.760;2023-02-17T10:10:15;19.75;;;14.27;;
30020;SDS011;16861;52.294;7.760;2023-02-17T10:12:49;19.55;;;14.95;;
30020;SDS011;16861;52.294;7.760;2023-02-17T10:15:23;18.30;;;14.43;;
30020;SDS011;16861;52.294;7.760;2023-02-17T10:20:56;17.77;;;13.82;;
30020;SDS011;16861;52.294;7.760;2023-02-17T10:23:27;18.02;;;13.45;;
30020;SDS011;16861;52.294;7.760;2023-02-17T10:40:20;16.15;;;12.85;;
30020;SDS011;16861;52.294;7.760;2023-02-17T10:42:49;16.83;;;12.60;;
30020;SDS011;16861;52.294;7.760;2023-02-17T10:45:32;15.38;;;12.98;;
30020;SDS011;16861;52.294;7.760;2023-02-17T10:48:02;17.33;;;12.45;;
30020;SDS011;16861;52.294;7.760;2023-02-17T10:50:32;18.50;;;12.68;;
30020;SDS011;16861;52.294;7.760;2023-02-17T10:58:39;17.67;;;12.68;;
30020;SDS011;16861;52.294;7.760;2023-02-17T11:01:10;15.95;;;12.23;;
30020;SDS011;16861;52.294;7.760;2023-02-17T11:03:38;14.95;;;12.25;;
30020;SDS011;16861;52.294;7.760;2023-02-17T11:06:16;14.65;;;12.15;;
30020;SDS011;16861;52.294;7.760;2023-02-17T11:08:57;14.05;;;12.07;;
30020;SDS011;16861;52.294;7.760;2023-02-17T11:11:33;16.13;;;12.88;;
30020;SDS011;16861;52.294;7.760;2023-02-17T11:19:00;14.27;;;11.88;;
30020;SDS011;16861;52.294;7.760;2023-02-17T11:21:28;17.48;;;12.52;;
30020;SDS011;16861;52.294;7.760;2023-02-17T11:24:00;15.65;;;11.73;;
30020;SDS011;16861;52.294;7.760;2023-02-17T11:26:29;20.67;;;12.60;;
30020;SDS011;16861;52.294;7.760;2023-02-17T11:29:09;15.63;;;12.60;;
30020;SDS011;16861;52.294;7.760;2023-02-17T11:31:41;13.43;;;11.98;;
30020;SDS011;16861;52.294;7.760;2023-02-17T11:34:14;15.68;;;12.32;;
30020;SDS011;16861;52.294;7.760;2023-02-17T11:36:46;15.30;;;12.82;;
30020;SDS011;16861;52.294;7.760;2023-02-17T11:39:24;14.13;;;11.60;;
30020;SDS011;16861;52.294;7.760;2023-02-17T11:41:50;13.48;;;11.25;;
30020;SDS011;16861;52.294;7.760;2023-02-17T11:44:24;14.07;;;12.10;;
30020;SDS011;16861;52.294;7.760;2023-02-17T11:46:54;14.20;;;11.93;;
30020;SDS011;16861;52.294;7.760;2023-02-17T12:00:21;14.07;;;12.00;;
30020;SDS011;16861;52.294;7.760;2023-02-17T12:11:40;12.40;;;11.10;;
30020;SDS011;16861;52.294;7.760;2023-02-17T12:20:27;12.60;;;10.23;;
30020;SDS011;16861;52.294;7.760;2023-02-17T12:29:21;9.15;;;7.80;;
30020;SDS011;16861;52.294;7.760;2023-02-17T12:37:05;9.30;;;6.97;;
30020;SDS011;16861;52.294;7.760;2023-02-17T12:39:43;9.35;;;6.95;;
30020;SDS011;16861;52.294;7.760;2023-02-17T12:42:22;7.45;;;6.18;;
30020;SDS011;16861;52.294;7.760;2023-02-17T12:44:53;11.25;;;6.88;;
30020;SDS011;16861;52.294;7.760;2023-02-17T12:47:29;9.98;;;6.88;;
30020;SDS011;16861;52.294;7.760;2023-02-17T12:50:14;9.48;;;6.30;;
30020;SDS011;16861;52.294;7.760;2023-02-17T12:52:46;10.63;;;7.18;;
30020;SDS011;16861;52.294;7.760;2023-02-17T12:55:20;7.85;;;6.20;;
30020;SDS011;16861;52.294;7.760;2023-02-17T13:00:38;9.32;;;6.75;;
30020;SDS011;16861;52.294;7.760;2023-02-17T13:03:09;7.13;;;5.97;;
30020;SDS011;16861;52.294;7.760;2023-02-17T13:08:06;9.45;;;6.40;;
30020;SDS011;16861;52.294;7.760;2023-02-17T13:10:34;8.32;;;5.97;;
30020;SDS011;16861;52.294;7.760;2023-02-17T13:15:30;7.75;;;5.78;;
30020;SDS011;16861;52.294;7.760;2023-02-17T13:18:05;7.38;;;5.70;;
30020;SDS011;16861;52.294;7.760;2023-02-17T13:20:41;6.53;;;5.20;;
30020;SDS011;16861;52.294;7.760;2023-02-17T13:23:25;7.00;;;5.50;;
30020;SDS011;16861;52.294;7.760;2023-02-17T13:28:48;10.30;;;6.18;;
30020;SDS011;16861;52.294;7.760;2023-02-17T13:31:18;8.57;;;6.32;;
30020;SDS011;16861;52.294;7.760;2023-02-17T13:33:52;7.38;;;5.47;;
30020;SDS011;16861;52.294;7.760;2023-02-17T13:41:22;8.10;;;6.05;;
30020;SDS011;16861;52.294;7.760;2023-02-17T13:43:48;9.65;;;6.50;;
30020;SDS011;16861;52.294;7.760;2023-02-17T13:46:19;10.02;;;6.10;;
30020;SDS011;16861;52.294;7.760;2023-02-17T13:49:03;6.63;;;5.80;;
30020;SDS011;16861;52.294;7.760;2023-02-17T13:51:32;8.38;;;6.05;;
30020;SDS011;16861;52.294;7.760;2023-02-17T13:54:06;9.90;;;6.85;;
30020;SDS011;16861;52.294;7.760;2023-02-17T13:56:33;8.23;;;6.30;;
30020;SDS011;16861;52.294;7.760;2023-02-17T13:59:33;7.35;;;5.88;;
30020;SDS011;16861;52.294;7.760;2023-02-17T14:01:53;9.07;;;7.13;;
30020;SDS011;16861;52.294;7.760;2023-02-17T14:06:48;10.18;;;7.72;;
30020;SDS011;16861;52.294;7.760;2023-02-17T14:09:20;11.63;;;7.50;;
30020;SDS011;16861;52.294;7.760;2023-02-17T14:11:48;11.43;;;7.25;;
30020;SDS011;16861;52.294;7.760;2023-02-17T14:14:16;10.07;;;6.93;;
30020;SDS011;16861;52.294;7.760;2023-02-17T14:16:43;10.07;;;6.57;;
30020;SDS011;16861;52.294;7.760;2023-02-17T14:19:11;10.80;;;7.38;;
30020;SDS011;16861;52.294;7.760;2023-02-17T14:21:44;8.50;;;6.60;;
30020;SDS011;16861;52.294;7.760;2023-02-17T14:24:29;9.70;;;6.72;;
30020;SDS011;16861;52.294;7.760;2023-02-17T14:27:04;10.80;;;7.18;;
30020;SDS011;16861;52.294;7.760;2023-02-17T14:29:51;12.55;;;7.13;;
30020;SDS011;16861;52.294;7.760;2023-02-17T14:32:25;8.40;;;6.82;;
30020;SDS011;16861;52.294;7.760;2023-02-17T14:34:51;8.93;;;6.35;;
30020;SDS011;16861;52.294;7.760;2023-02-17T14:37:21;10.82;;;6.78;;
30020;SDS011;16861;52.294;7.760;2023-02-17T14:39:50;11.63;;;7.20;;
30020;SDS011;16861;52.294;7.760;2023-02-17T14:42:16;10.63;;;6.70;;
30020;SDS011;16861;52.294;7.760;2023-02-17T14:44:43;9.65;;;7.20;;
30020;SDS011;16861;52.294;7.760;2023-02-17T14:47:10;9.20;;;6.28;;
30020;SDS011;16861;52.294;7.760;2023-02-17T14:49:36;9.50;;;6.70;;
30020;SDS011;16861;52.294;7.760;2023-02-17T14:52:14;9.23;;;6.30;;
30020;SDS011;16861;52.294;7.760;2023-02-17T14:54:45;11.30;;;6.45;;
30020;SDS011;16861;52.294;7.760;2023-02-17T14:57:12;9.23;;;6.13;;
30020;SDS011;16861;52.294;7.760;2023-02-17T14:59:42;10.63;;;5.97;;
30020;SDS011;16861;52.294;7.760;2023-02-17T15:02:16;9.18;;;5.70;;
30020;SDS011;16861;52.294;7.760;2023-02-17T15:04:44;9.00;;;5.60;;
30020;SDS011;16861;52.294;7.760;2023-02-17T15:07:12;8.73;;;5.60;;
30020;SDS011;16861;52.294;7.760;2023-02-17T15:09:42;9.88;;;5.82;;
30020;SDS011;16861;52.294;7.760;2023-02-17T15:12:14;10.23;;;5.28;;
30020;SDS011;16861;52.294;7.760;2023-02-17T15:14:43;10.03;;;5.87;;
30020;SDS011;16861;52.294;7.760;2023-02-17T15:17:11;9.13;;;6.03;;
30020;SDS011;16861;52.294;7.760;2023-02-17T15:19:38;10.10;;;6.07;;
30020;SDS011;16861;52.294;7.760;2023-02-17T15:22:05;13.55;;;6.55;;
30020;SDS011;16861;52.294;7.760;2023-02-17T15:24:33;10.23;;;5.60;;
30020;SDS011;16861;52.294;7.760;2023-02-17T15:27:01;8.82;;;5.40;;
30020;SDS011;16861;52.294;7.760;2023-02-17T15:29:31;9.55;;;4.93;;
30020;SDS011;16861;52.294;7.760;2023-02-17T15:31:59;5.95;;;4.53;;
30020;SDS011;16861;52.294;7.760;2023-02-17T15:34:30;7.10;;;5.07;;
30020;SDS011;16861;52.294;7.760;2023-02-17T15:36:58;7.38;;;5.25;;
30020;SDS011;16861;52.294;7.760;2023-02-17T15:39:25;10.65;;;4.72;;
30020;SDS011;16861;52.294;7.760;2023-02-17T15:41:52;7.18;;;5.15;;
30020;SDS011;16861;52.294;7.760;2023-02-17T15:44:24;9.00;;;5.20;;
30020;SDS011;16861;52.294;7.760;2023-02-17T15:46:57;8.65;;;5.30;;
30020;SDS011;16861;52.294;7.760;2023-02-17T15:49:25;8.88;;;5.63;;
30020;SDS011;16861;52.294;7.760;2023-02-17T15:51:52;10.73;;;5.82;;
30020;SDS011;16861;52.294;7.760;2023-02-17T15:54:18;6.07;;;4.97;;
30020;SDS011;16861;52.294;7.760;2023-02-17T15:56:46;10.35;;;6.20;;
30020;SDS011;16861;52.294;7.760;2023-02-17T15:59:17;9.10;;;5.35;;
30020;SDS011;16861;52.294;7.760;2023-02-17T16:01:47;13.45;;;5.43;;
30020;SDS011;16861;52.294;7.760;2023-02-17T16:04:14;10.13;;;6.35;;
30020;SDS011;16861;52.294;7.760;2023-02-17T16:06:40;10.98;;;5.80;;
30020;SDS011;16861;52.294;7.760;2023-02-17T16:09:08;9.40;;;6.03;;
30020;SDS011;16861;52.294;7.760;2023-02-17T16:11:36;9.70;;;6.05;;
30020;SDS011;16861;52.294;7.760;2023-02-17T16:14:15;10.82;;;6.18;;
30020;SDS011;16861;52.294;7.760;2023-02-17T16:16:50;11.90;;;6.38;;
30020;SDS011;16861;52.294;7.760;2023-02-17T16:19:16;11.50;;;6.70;;
30020;SDS011;16861;52.294;7.760;2023-02-17T16:21:43;10.15;;;6.35;;
30020;SDS011;16861;52.294;7.760;2023-02-17T16:24:09;12.05;;;6.38;;
30020;SDS011;16861;52.294;7.760;2023-02-17T16:26:36;10.25;;;6.10;;
30020;SDS011;16861;52.294;7.760;2023-02-17T16:29:09;11.85;;;6.25;;
30020;SDS011;16861;52.294;7.760;2023-02-17T16:31:43;9.02;;;5.93;;